sensor_id;sensor_type;location;lat;lon;timestamp;temperature;humidity
4090;DHT22;2059;48.538;12.146;2023-03-17T00:02:16;5.40;81.20
4090;DHT22;2059;48.538;12.146;2023-03-17T00:07:19;5.40;80.70
4090;DHT22;2059;48.538;12.146;2023-03-17T00:12:21;5.30;81.00
4090;DHT22;2059;48.538;12.146;2023-03-17T00:17:24;5.30;80.70
4090;DHT22;2059;48.538;12.146;2023-03-17T00:22:27;5.20;81.10
4090;DHT22;2059;48.538;12.146;2023-03-17T00:27:29;5.30;80.50
4090;DHT22;2059;48.538;12.146;2023-03-17T00:32:31;5.40;80.60
4090;DHT22;2059;48.538;12.146;2023-03-17T00:37:34;5.30;80.50
4090;DHT22;2059;48.538;12.146;2023-03-17T00:42:37;5.40;80.80
4090;DHT22;2059;48.538;12.146;2023-03-17T00:47:38;5.10;80.70
4090;DHT22;2059;48.538;12.146;2023-03-17T00:52:43;5.00;81.50
4090;DHT22;2059;48.538;12.146;2023-03-17T00:57:46;5.10;81.40
4090;DHT22;2059;48.538;12.146;2023-03-17T01:02:48;5.00;81.00
4090;DHT22;2059;48.538;12.146;2023-03-17T01:07:54;4.90;81.80
4090;DHT22;2059;48.538;12.146;2023-03-17T01:12:57;4.80;81.70
4090;DHT22;2059;48.538;12.146;2023-03-17T01:18:00;4.90;80.80
4090;DHT22;2059;48.538;12.146;2023-03-17T01:23:03;4.70;81.70
4090;DHT22;2059;48.538;12.146;2023-03-17T01:28:06;4.80;81.40
4090;DHT22;2059;48.538;12.146;2023-03-17T01:33:09;4.90;82.20
4090;DHT22;2059;48.538;12.146;2023-03-17T01:38:13;4.70;81.70
4090;DHT22;2059;48.538;12.146;2023-03-17T01:43:19;4.70;81.60
4090;DHT22;2059;48.538;12.146;2023-03-17T01:48:23;4.40;82.70
4090;DHT22;2059;48.538;12.146;2023-03-17T01:53:27;4.60;82.50
4090;DHT22;2059;48.538;12.146;2023-03-17T01:58:29;4.50;82.50
4090;DHT22;2059;48.538;12.146;2023-03-17T02:03:33;4.40;82.90
4090;DHT22;2059;48.538;12.146;2023-03-17T02:08:36;4.40;83.30
4090;DHT22;2059;48.538;12.146;2023-03-17T02:13:37;4.40;82.70
4090;DHT22;2059;48.538;12.146;2023-03-17T02:18:41;4.20;83.20
4090;DHT22;2059;48.538;12.146;2023-03-17T02:23:44;4.20;83.80
4090;DHT22;2059;48.538;12.146;2023-03-17T02:28:46;4.10;83.90
4090;DHT22;2059;48.538;12.146;2023-03-17T02:33:48;4.10;84.20
4090;DHT22;2059;48.538;12.146;2023-03-17T02:38:53;4.20;84.10
4090;DHT22;2059;48.538;12.146;2023-03-17T02:43:54;4.40;83.00
4090;DHT22;2059;48.538;12.146;2023-03-17T02:48:56;4.10;83.20
4090;DHT22;2059;48.538;12.146;2023-03-17T02:54:00;3.90;84.80
4090;DHT22;2059;48.538;12.146;2023-03-17T02:59:02;4.00;85.80
4090;DHT22;2059;48.538;12.146;2023-03-17T03:04:04;3.90;86.40
4090;DHT22;2059;48.538;12.146;2023-03-17T03:09:07;3.90;86.70
4090;DHT22;2059;48.538;12.146;2023-03-17T03:14:11;3.80;86.80
4090;DHT22;2059;48.538;12.146;2023-03-17T03:19:13;3.70;87.30
4090;DHT22;2059;48.538;12.146;2023-03-17T03:24:16;3.80;87.80
4090;DHT22;2059;48.538;12.146;2023-03-17T03:29:17;3.70;87.90
4090;DHT22;2059;48.538;12.146;2023-03-17T03:34:19;3.80;87.20
4090;DHT22;2059;48.538;12.146;2023-03-17T03:39:23;3.70;87.70
4090;DHT22;2059;48.538;12.146;2023-03-17T03:44:25;3.60;88.30
4090;DHT22;2059;48.538;12.146;2023-03-17T03:49:26;3.70;88.10
4090;DHT22;2059;48.538;12.146;2023-03-17T03:54:30;3.80;88.00
4090;DHT22;2059;48.538;12.146;2023-03-17T03:59:31;3.70;88.40
4090;DHT22;2059;48.538;12.146;2023-03-17T04:04:33;3.30;89.90
4090;DHT22;2059;48.538;12.146;2023-03-17T04:09:37;3.40;90.10
4090;DHT22;2059;48.538;12.146;2023-03-17T04:14:39;3.10;90.10
4090;DHT22;2059;48.538;12.146;2023-03-17T04:19:41;3.20;90.10
4090;DHT22;2059;48.538;12.146;2023-03-17T04:24:44;3.30;90.10
4090;DHT22;2059;48.538;12.146;2023-03-17T04:29:46;3.40;89.30
4090;DHT22;2059;48.538;12.146;2023-03-17T04:34:48;3.20;90.00
4090;DHT22;2059;48.538;12.146;2023-03-17T04:39:52;3.30;89.40
4090;DHT22;2059;48.538;12.146;2023-03-17T04:44:55;3.50;88.50
4090;DHT22;2059;48.538;12.146;2023-03-17T04:49:57;3.60;88.00
4090;DHT22;2059;48.538;12.146;2023-03-17T04:55:00;3.30;89.30
4090;DHT22;2059;48.538;12.146;2023-03-17T05:00:02;3.30;89.40
4090;DHT22;2059;48.538;12.146;2023-03-17T05:05:06;3.40;89.50
4090;DHT22;2059;48.538;12.146;2023-03-17T05:10:10;3.80;89.60
4090;DHT22;2059;48.538;12.146;2023-03-17T05:15:13;3.60;90.00
4090;DHT22;2059;48.538;12.146;2023-03-17T05:20:15;3.30;90.60
4090;DHT22;2059;48.538;12.146;2023-03-17T05:25:18;3.40;90.80
4090;DHT22;2059;48.538;12.146;2023-03-17T05:30:20;3.70;90.40
4090;DHT22;2059;48.538;12.146;2023-03-17T05:35:22;3.70;90.40
4090;DHT22;2059;48.538;12.146;2023-03-17T05:40:25;3.90;90.20
4090;DHT22;2059;48.538;12.146;2023-03-17T05:45:27;3.60;90.60
4090;DHT22;2059;48.538;12.146;2023-03-17T05:50:29;3.90;90.60
4090;DHT22;2059;48.538;12.146;2023-03-17T05:55:33;3.80;90.80
4090;DHT22;2059;48.538;12.146;2023-03-17T06:00:35;3.90;90.50
4090;DHT22;2059;48.538;12.146;2023-03-17T06:05:37;4.40;89.90
4090;DHT22;2059;48.538;12.146;2023-03-17T06:10:41;4.70;88.90
4090;DHT22;2059;48.538;12.146;2023-03-17T06:15:43;4.90;88.00
4090;DHT22;2059;48.538;12.146;2023-03-17T06:20:45;5.10;87.20
4090;DHT22;2059;48.538;12.146;2023-03-17T06:25:48;5.20;86.00
4090;DHT22;2059;48.538;12.146;2023-03-17T06:30:50;5.40;85.20
4090;DHT22;2059;48.538;12.146;2023-03-17T06:35:52;5.20;86.10
4090;DHT22;2059;48.538;12.146;2023-03-17T06:40:55;5.10;85.90
4090;DHT22;2059;48.538;12.146;2023-03-17T06:45:57;5.00;86.50
4090;DHT22;2059;48.538;12.146;2023-03-17T06:50:59;5.00;86.70
4090;DHT22;2059;48.538;12.146;2023-03-17T06:56:03;5.30;86.20
4090;DHT22;2059;48.538;12.146;2023-03-17T07:01:05;5.20;86.80
4090;DHT22;2059;48.538;12.146;2023-03-17T07:06:07;5.40;86.60
4090;DHT22;2059;48.538;12.146;2023-03-17T07:11:11;5.60;86.60
4090;DHT22;2059;48.538;12.146;2023-03-17T07:16:13;5.90;86.60
4090;DHT22;2059;48.538;12.146;2023-03-17T07:21:16;6.40;84.90
4090;DHT22;2059;48.538;12.146;2023-03-17T07:26:19;6.50;84.90
4090;DHT22;2059;48.538;12.146;2023-03-17T07:31:21;6.90;84.10
4090;DHT22;2059;48.538;12.146;2023-03-17T07:36:23;7.00;83.50
4090;DHT22;2059;48.538;12.146;2023-03-17T07:41:27;7.20;84.10
4090;DHT22;2059;48.538;12.146;2023-03-17T07:46:29;7.80;82.50
4090;DHT22;2059;48.538;12.146;2023-03-17T07:51:30;8.00;80.70
4090;DHT22;2059;48.538;12.146;2023-03-17T07:56:33;8.20;79.70
4090;DHT22;2059;48.538;12.146;2023-03-17T08:01:35;8.50;78.10
4090;DHT22;2059;48.538;12.146;2023-03-17T08:06:37;8.70;77.80
4090;DHT22;2059;48.538;12.146;2023-03-17T08:11:41;9.30;77.90
4090;DHT22;2059;48.538;12.146;2023-03-17T08:16:43;9.90;75.30
4090;DHT22;2059;48.538;12.146;2023-03-17T08:21:45;10.10;74.40
4090;DHT22;2059;48.538;12.146;2023-03-17T08:26:48;10.30;73.30
4090;DHT22;2059;48.538;12.146;2023-03-17T08:31:50;10.70;72.80
4090;DHT22;2059;48.538;12.146;2023-03-17T08:36:52;10.90;71.90
4090;DHT22;2059;48.538;12.146;2023-03-17T08:41:55;10.80;72.20
4090;DHT22;2059;48.538;12.146;2023-03-17T08:46:57;11.40;71.10
4090;DHT22;2059;48.538;12.146;2023-03-17T08:51:58;11.80;69.20
4090;DHT22;2059;48.538;12.146;2023-03-17T08:57:02;12.00;69.10
4090;DHT22;2059;48.538;12.146;2023-03-17T09:02:04;12.20;69.90
4090;DHT22;2059;48.538;12.146;2023-03-17T09:07:06;12.30;69.00
4090;DHT22;2059;48.538;12.146;2023-03-17T09:12:11;12.80;69.20
4090;DHT22;2059;48.538;12.146;2023-03-17T09:17:12;12.80;68.70
4090;DHT22;2059;48.538;12.146;2023-03-17T09:22:16;13.00;68.30
4090;DHT22;2059;48.538;12.146;2023-03-17T09:27:19;13.50;68.40
4090;DHT22;2059;48.538;12.146;2023-03-17T09:32:21;13.90;67.10
4090;DHT22;2059;48.538;12.146;2023-03-17T09:37:24;14.50;64.90
4090;DHT22;2059;48.538;12.146;2023-03-17T09:42:41;14.60;64.70
4090;DHT22;2059;48.538;12.146;2023-03-17T09:48:11;15.10;65.30
4090;DHT22;2059;48.538;12.146;2023-03-17T09:53:17;15.70;64.20
4090;DHT22;2059;48.538;12.146;2023-03-17T09:58:27;15.80;62.80
4090;DHT22;2059;48.538;12.146;2023-03-17T10:03:31;15.80;62.50
4090;DHT22;2059;48.538;12.146;2023-03-17T10:08:37;15.90;61.90
4090;DHT22;2059;48.538;12.146;2023-03-17T10:13:51;16.50;62.70
4090;DHT22;2059;48.538;12.146;2023-03-17T10:19:00;16.70;61.20
4090;DHT22;2059;48.538;12.146;2023-03-17T10:24:05;16.60;61.40
4090;DHT22;2059;48.538;12.146;2023-03-17T10:29:13;16.20;62.70
4090;DHT22;2059;48.538;12.146;2023-03-17T10:34:21;16.50;60.50
4090;DHT22;2059;48.538;12.146;2023-03-17T10:39:26;16.60;61.90
4090;DHT22;2059;48.538;12.146;2023-03-17T10:44:39;17.30;61.70
4090;DHT22;2059;48.538;12.146;2023-03-17T10:49:43;16.90;60.40
4090;DHT22;2059;48.538;12.146;2023-03-17T10:54:47;17.00;59.70
4090;DHT22;2059;48.538;12.146;2023-03-17T10:59:53;17.10;62.00
4090;DHT22;2059;48.538;12.146;2023-03-17T11:05:04;17.20;61.30
4090;DHT22;2059;48.538;12.146;2023-03-17T11:10:16;17.10;61.30
4090;DHT22;2059;48.538;12.146;2023-03-17T11:15:20;17.10;61.50
4090;DHT22;2059;48.538;12.146;2023-03-17T11:20:44;17.40;59.70
4090;DHT22;2059;48.538;12.146;2023-03-17T11:25:50;17.40;59.60
4090;DHT22;2059;48.538;12.146;2023-03-17T11:31:03;17.20;60.70
4090;DHT22;2059;48.538;12.146;2023-03-17T11:36:17;17.50;60.20
4090;DHT22;2059;48.538;12.146;2023-03-17T11:41:41;17.70;59.70
4090;DHT22;2059;48.538;12.146;2023-03-17T11:46:50;17.60;59.90
4090;DHT22;2059;48.538;12.146;2023-03-17T11:52:01;17.50;61.10
4090;DHT22;2059;48.538;12.146;2023-03-17T11:57:09;17.90;60.80
4090;DHT22;2059;48.538;12.146;2023-03-17T12:02:21;18.00;61.40
4090;DHT22;2059;48.538;12.146;2023-03-17T12:07:25;18.50;60.90
4090;DHT22;2059;48.538;12.146;2023-03-17T12:12:34;18.40;60.00
4090;DHT22;2059;48.538;12.146;2023-03-17T12:17:47;18.60;60.00
4090;DHT22;2059;48.538;12.146;2023-03-17T12:22:54;18.50;59.80
4090;DHT22;2059;48.538;12.146;2023-03-17T12:28:00;18.70;59.00
4090;DHT22;2059;48.538;12.146;2023-03-17T12:33:14;18.90;58.70
4090;DHT22;2059;48.538;12.146;2023-03-17T12:38:21;19.00;59.00
4090;DHT22;2059;48.538;12.146;2023-03-17T12:43:35;19.10;58.50
4090;DHT22;2059;48.538;12.146;2023-03-17T12:49:14;19.20;60.40
4090;DHT22;2059;48.538;12.146;2023-03-17T12:54:23;19.30;58.50
4090;DHT22;2059;48.538;12.146;2023-03-17T12:59:27;19.50;60.20
4090;DHT22;2059;48.538;12.146;2023-03-17T13:04:33;19.80;57.60
4090;DHT22;2059;48.538;12.146;2023-03-17T13:09:44;19.40;58.00
4090;DHT22;2059;48.538;12.146;2023-03-17T13:14:47;19.20;57.90
4090;DHT22;2059;48.538;12.146;2023-03-17T13:20:02;19.10;57.50
4090;DHT22;2059;48.538;12.146;2023-03-17T13:25:28;19.00;58.40
4090;DHT22;2059;48.538;12.146;2023-03-17T13:30:55;18.90;58.80
4090;DHT22;2059;48.538;12.146;2023-03-17T13:36:27;19.30;59.00
4090;DHT22;2059;48.538;12.146;2023-03-17T13:41:39;19.10;58.50
4090;DHT22;2059;48.538;12.146;2023-03-17T13:46:45;19.20;57.90
4090;DHT22;2059;48.538;12.146;2023-03-17T13:51:52;19.00;58.90
4090;DHT22;2059;48.538;12.146;2023-03-17T13:56:56;19.00;58.80
4090;DHT22;2059;48.538;12.146;2023-03-17T14:02:02;19.20;58.40
4090;DHT22;2059;48.538;12.146;2023-03-17T14:07:15;19.30;58.80
4090;DHT22;2059;48.538;12.146;2023-03-17T14:12:23;19.30;58.20
4090;DHT22;2059;48.538;12.146;2023-03-17T14:17:28;19.50;58.90
4090;DHT22;2059;48.538;12.146;2023-03-17T14:22:38;19.60;57.50
4090;DHT22;2059;48.538;12.146;2023-03-17T14:27:41;19.10;58.50
4090;DHT22;2059;48.538;12.146;2023-03-17T14:32:46;19.20;58.50
4090;DHT22;2059;48.538;12.146;2023-03-17T14:37:50;19.30;59.10
4090;DHT22;2059;48.538;12.146;2023-03-17T14:42:52;19.30;58.70
4090;DHT22;2059;48.538;12.146;2023-03-17T14:47:54;19.20;58.50
4090;DHT22;2059;48.538;12.146;2023-03-17T14:52:59;19.00;58.60
4090;DHT22;2059;48.538;12.146;2023-03-17T14:58:06;19.10;58.70
4090;DHT22;2059;48.538;12.146;2023-03-17T15:03:20;18.70;59.30
4090;DHT22;2059;48.538;12.146;2023-03-17T15:08:38;18.70;59.30
4090;DHT22;2059;48.538;12.146;2023-03-17T15:13:42;19.00;59.20
4090;DHT22;2059;48.538;12.146;2023-03-17T15:18:44;19.10;58.90
4090;DHT22;2059;48.538;12.146;2023-03-17T15:23:47;19.10;58.90
4090;DHT22;2059;48.538;12.146;2023-03-17T15:28:49;18.90;59.70
4090;DHT22;2059;48.538;12.146;2023-03-17T15:33:51;18.90;60.00
4090;DHT22;2059;48.538;12.146;2023-03-17T15:38:54;18.90;59.80
4090;DHT22;2059;48.538;12.146;2023-03-17T15:43:56;18.60;60.90
4090;DHT22;2059;48.538;12.146;2023-03-17T15:48:58;18.70;60.00
4090;DHT22;2059;48.538;12.146;2023-03-17T15:54:01;18.80;60.20
4090;DHT22;2059;48.538;12.146;2023-03-17T15:59:03;18.70;60.40
4090;DHT22;2059;48.538;12.146;2023-03-17T16:04:05;18.70;60.30
4090;DHT22;2059;48.538;12.146;2023-03-17T16:09:14;18.40;59.50
4090;DHT22;2059;48.538;12.146;2023-03-17T16:14:17;18.20;59.80
4090;DHT22;2059;48.538;12.146;2023-03-17T16:19:20;18.50;59.00
4090;DHT22;2059;48.538;12.146;2023-03-17T16:24:25;18.40;59.10
4090;DHT22;2059;48.538;12.146;2023-03-17T16:29:29;17.90;60.00
4090;DHT22;2059;48.538;12.146;2023-03-17T16:34:30;17.60;59.20
4090;DHT22;2059;48.538;12.146;2023-03-17T16:39:34;17.00;60.70
4090;DHT22;2059;48.538;12.146;2023-03-17T16:44:36;16.90;60.00
4090;DHT22;2059;48.538;12.146;2023-03-17T16:49:37;16.50;60.70
4090;DHT22;2059;48.538;12.146;2023-03-17T16:54:40;16.30;61.70
4090;DHT22;2059;48.538;12.146;2023-03-17T16:59:42;16.10;62.40
4090;DHT22;2059;48.538;12.146;2023-03-17T17:04:44;15.80;62.50
4090;DHT22;2059;48.538;12.146;2023-03-17T17:09:47;15.50;63.20
4090;DHT22;2059;48.538;12.146;2023-03-17T17:14:49;15.20;63.70
4090;DHT22;2059;48.538;12.146;2023-03-17T17:19:50;14.90;64.60
4090;DHT22;2059;48.538;12.146;2023-03-17T17:24:53;14.70;65.20
4090;DHT22;2059;48.538;12.146;2023-03-17T17:29:55;14.50;65.90
4090;DHT22;2059;48.538;12.146;2023-03-17T17:34:57;14.40;66.20
4090;DHT22;2059;48.538;12.146;2023-03-17T17:40:00;14.40;66.60
4090;DHT22;2059;48.538;12.146;2023-03-17T17:45:03;14.10;67.30
4090;DHT22;2059;48.538;12.146;2023-03-17T17:50:06;13.80;68.10
4090;DHT22;2059;48.538;12.146;2023-03-17T17:55:11;13.70;68.70
4090;DHT22;2059;48.538;12.146;2023-03-17T18:00:15;13.70;68.90
4090;DHT22;2059;48.538;12.146;2023-03-17T18:05:17;13.70;69.20
4090;DHT22;2059;48.538;12.146;2023-03-17T18:10:23;13.50;69.20
4090;DHT22;2059;48.538;12.146;2023-03-17T18:15:26;13.40;69.50
4090;DHT22;2059;48.538;12.146;2023-03-17T18:20:28;13.20;69.70
4090;DHT22;2059;48.538;12.146;2023-03-17T18:25:32;13.20;70.10
4090;DHT22;2059;48.538;12.146;2023-03-17T18:30:34;13.20;70.20
4090;DHT22;2059;48.538;12.146;2023-03-17T18:35:36;13.20;71.00
4090;DHT22;2059;48.538;12.146;2023-03-17T18:40:40;13.10;71.50
4090;DHT22;2059;48.538;12.146;2023-03-17T18:45:42;13.00;71.90
4090;DHT22;2059;48.538;12.146;2023-03-17T18:50:44;12.80;72.10
4090;DHT22;2059;48.538;12.146;2023-03-17T18:55:47;12.60;73.50
4090;DHT22;2059;48.538;12.146;2023-03-17T19:00:49;12.40;73.00
4090;DHT22;2059;48.538;12.146;2023-03-17T19:05:52;12.30;73.50
4090;DHT22;2059;48.538;12.146;2023-03-17T19:10:56;12.30;73.50
4090;DHT22;2059;48.538;12.146;2023-03-17T19:15:58;12.20;74.00
4090;DHT22;2059;48.538;12.146;2023-03-17T19:21:00;12.10;75.30
4090;DHT22;2059;48.538;12.146;2023-03-17T19:26:03;12.10;76.10
4090;DHT22;2059;48.538;12.146;2023-03-17T19:31:06;12.10;76.60
4090;DHT22;2059;48.538;12.146;2023-03-17T19:36:11;12.10;76.70
4090;DHT22;2059;48.538;12.146;2023-03-17T19:41:14;11.90;76.70
4090;DHT22;2059;48.538;12.146;2023-03-17T19:46:17;11.80;77.30
4090;DHT22;2059;48.538;12.146;2023-03-17T19:51:19;11.70;77.30
4090;DHT22;2059;48.538;12.146;2023-03-17T19:56:22;11.60;77.30
4090;DHT22;2059;48.538;12.146;2023-03-17T20:01:24;11.50;77.40
4090;DHT22;2059;48.538;12.146;2023-03-17T20:06:26;11.50;78.10
4090;DHT22;2059;48.538;12.146;2023-03-17T20:11:31;11.40;78.00
4090;DHT22;2059;48.538;12.146;2023-03-17T20:16:33;11.20;78.20
4090;DHT22;2059;48.538;12.146;2023-03-17T20:21:36;11.10;79.10
4090;DHT22;2059;48.538;12.146;2023-03-17T20:26:40;11.00;80.20
4090;DHT22;2059;48.538;12.146;2023-03-17T20:31:42;10.90;80.40
4090;DHT22;2059;48.538;12.146;2023-03-17T20:36:44;10.90;81.00
4090;DHT22;2059;48.538;12.146;2023-03-17T20:41:47;10.70;80.60
4090;DHT22;2059;48.538;12.146;2023-03-17T20:46:50;10.60;80.80
4090;DHT22;2059;48.538;12.146;2023-03-17T20:51:52;10.50;81.70
4090;DHT22;2059;48.538;12.146;2023-03-17T20:56:55;10.30;82.40
4090;DHT22;2059;48.538;12.146;2023-03-17T21:01:57;10.30;82.80
4090;DHT22;2059;48.538;12.146;2023-03-17T21:07:00;10.10;83.30
4090;DHT22;2059;48.538;12.146;2023-03-17T21:12:04;10.10;84.20
4090;DHT22;2059;48.538;12.146;2023-03-17T21:17:09;9.90;86.50
4090;DHT22;2059;48.538;12.146;2023-03-17T21:22:11;9.80;86.70
4090;DHT22;2059;48.538;12.146;2023-03-17T21:27:14;9.80;87.30
4090;DHT22;2059;48.538;12.146;2023-03-17T21:32:17;9.50;89.10
4090;DHT22;2059;48.538;12.146;2023-03-17T21:37:19;9.00;90.00
4090;DHT22;2059;48.538;12.146;2023-03-17T21:42:22;8.60;90.70
4090;DHT22;2059;48.538;12.146;2023-03-17T21:47:24;8.90;90.30
4090;DHT22;2059;48.538;12.146;2023-03-17T21:52:25;8.90;90.40
4090;DHT22;2059;48.538;12.146;2023-03-17T21:57:29;9.00;90.20
4090;DHT22;2059;48.538;12.146;2023-03-17T22:02:30;9.00;90.20
4090;DHT22;2059;48.538;12.146;2023-03-17T22:07:32;9.00;90.40
4090;DHT22;2059;48.538;12.146;2023-03-17T22:12:36;9.00;90.00
4090;DHT22;2059;48.538;12.146;2023-03-17T22:17:38;8.90;90.10
4090;DHT22;2059;48.538;12.146;2023-03-17T22:22:40;8.80;90.40
4090;DHT22;2059;48.538;12.146;2023-03-17T22:27:43;8.70;90.40
4090;DHT22;2059;48.538;12.146;2023-03-17T22:32:45;8.70;90.60
4090;DHT22;2059;48.538;12.146;2023-03-17T22:37:47;8.60;90.80
4090;DHT22;2059;48.538;12.146;2023-03-17T22:42:50;8.40;91.70
